Time;durP1;ratioP1;P1;durP2;ratioP2;P2;SDS_P1;SDS_P2;PMS_P1;PMS_P2;Temp;Humidity;BMP_temperature;BMP_pressure;BME280_temperature;BME280_humidity;BME280_pressure;Samples;Min_cycle;Max_cycle;Signal;HPM_P1;HPM_P2
2023/07/06 00:00:52;;;;;;;11.73;9.67;;;;;;;;;;5034928;28;20180;-78
2023/07/06 00:03:18;;;;;;;11.53;9.07;;;;;;;;;;5034585;28;20180;-80
2023/07/06 00:05:45;;;;;;;10.57;9.30;;;;;;;;;;5018153;28;20231;-81
2023/07/06 00:08:14;;;;;;;9.93;8.67;;;;;;;;;;5053036;28;20329;-81
2023/07/06 00:10:43;;;;;;;10.00;9.00;;;;;;;;;;5053083;28;20191;-81
2023/07/06 00:13:09;;;;;;;10.23;9.23;;;;;;;;;;5034327;28;20183;-81
2023/07/06 00:15:36;;;;;;;12.10;8.67;;;;;;;;;;5018891;28;20180;-81
2023/07/06 00:18:05;;;;;;;12.57;9.47;;;;;;;;;;5019573;28;20183;-81
2023/07/06 00:20:32;;;;;;;10.67;8.53;;;;;;;;;;5035649;28;20184;-78
2023/07/06 00:23:01;;;;;;;12.07;8.90;;;;;;;;;;5034130;28;20176;-79
2023/07/06 00:25:27;;;;;;;11.00;8.83;;;;;;;;;;5010749;28;20299;-79
2023/07/06 00:27:58;;;;;;;11.47;8.60;;;;;;;;;;5048658;28;20267;-79
2023/07/06 00:33:11;;;;;;;11.57;9.03;;;;;;;;;;5056185;28;20200;-79
2023/07/06 00:35:39;;;;;;;9.90;8.90;;;;;;;;;;5038387;28;20198;-79
2023/07/06 00:38:10;;;;;;;9.83;8.23;;;;;;;;;;5012876;28;20189;-81
2023/07/06 00:40:40;;;;;;;10.93;9.17;;;;;;;;;;5022977;28;20184;-81
2023/07/06 00:43:09;;;;;;;10.90;9.80;;;;;;;;;;5026043;28;20176;-81
2023/07/06 00:45:35;;;;;;;10.67;9.53;;;;;;;;;;5043048;28;20231;-81
2023/07/06 00:48:02;;;;;;;11.10;9.83;;;;;;;;;;5038125;28;20176;-81
2023/07/06 00:50:29;;;;;;;11.30;10.03;;;;;;;;;;5038697;28;20188;-81
2023/07/06 00:52:58;;;;;;;11.50;10.07;;;;;;;;;;5039125;28;20183;-81
2023/07/06 00:55:27;;;;;;;11.83;9.40;;;;;;;;;;5037242;28;20183;-82
2023/07/06 00:57:56;;;;;;;11.00;9.90;;;;;;;;;;5039152;28;20237;-82
2023/07/06 01:00:22;;;;;;;11.17;9.73;;;;;;;;;;5025609;28;20210;-82
2023/07/06 01:02:54;;;;;;;11.17;9.87;;;;;;;;;;5022874;28;20291;-82
2023/07/06 01:05:21;;;;;;;11.47;9.97;;;;;;;;;;5038502;28;20237;-82
2023/07/06 01:07:48;;;;;;;11.20;9.23;;;;;;;;;;5035385;28;20195;-82
2023/07/06 01:10:14;;;;;;;10.80;9.70;;;;;;;;;;5023175;28;20179;-82
2023/07/06 01:12:40;;;;;;;12.97;9.40;;;;;;;;;;5038611;28;20242;-82
2023/07/06 01:15:07;;;;;;;11.50;9.30;;;;;;;;;;5021791;28;20200;-81
2023/07/06 01:17:56;;;;;;;10.10;9.10;;;;;;;;;;5048195;28;20231;-82
2023/07/06 01:20:34;;;;;;;9.93;8.93;;;;;;;;;;5029871;28;20199;-81
2023/07/06 01:23:01;;;;;;;10.43;9.40;;;;;;;;;;5037086;28;20238;-82
2023/07/06 01:25:53;;;;;;;10.07;9.10;;;;;;;;;;5028523;28;20212;-82
2023/07/06 01:28:19;;;;;;;9.77;8.87;;;;;;;;;;5031337;28;20192;-87
2023/07/06 01:30:45;;;;;;;10.03;9.03;;;;;;;;;;5034622;28;20264;-87
2023/07/06 01:33:14;;;;;;;9.90;8.83;;;;;;;;;;5039001;28;20302;-86
2023/07/06 01:35:48;;;;;;;9.67;8.37;;;;;;;;;;5028717;28;20204;-87
2023/07/06 01:38:14;;;;;;;10.27;8.00;;;;;;;;;;5056555;28;20180;-86
2023/07/06 01:40:42;;;;;;;11.50;8.43;;;;;;;;;;5036208;28;20180;-86
2023/07/06 01:43:13;;;;;;;9.97;8.63;;;;;;;;;;5038728;28;20191;-86
2023/07/06 01:45:39;;;;;;;10.73;8.93;;;;;;;;;;5029266;28;20208;-82
2023/07/06 01:48:07;;;;;;;10.43;8.90;;;;;;;;;;5032000;28;20185;-82
2023/07/06 01:50:39;;;;;;;9.00;8.20;;;;;;;;;;5035190;28;20187;-82
2023/07/06 01:53:15;;;;;;;10.17;8.67;;;;;;;;;;5050042;28;20188;-82
2023/07/06 01:55:59;;;;;;;9.63;8.73;;;;;;;;;;5031115;28;20278;-82
2023/07/06 01:58:54;;;;;;;11.70;9.27;;;;;;;;;;5037338;28;20184;-82
2023/07/06 02:01:29;;;;;;;10.03;8.83;;;;;;;;;;5010890;28;20192;-79
2023/07/06 02:03:55;;;;;;;10.30;8.87;;;;;;;;;;5038406;28;20234;-79
2023/07/06 02:06:22;;;;;;;15.90;9.97;;;;;;;;;;5007888;28;20228;-79
2023/07/06 02:08:49;;;;;;;10.60;9.43;;;;;;;;;;5037978;28;20191;-79
2023/07/06 02:11:17;;;;;;;10.87;9.73;;;;;;;;;;5037533;28;20180;-79
2023/07/06 02:13:44;;;;;;;10.40;9.40;;;;;;;;;;5037218;28;20180;-79
2023/07/06 02:16:10;;;;;;;10.50;9.47;;;;;;;;;;5021134;28;20219;-79
2023/07/06 02:18:36;;;;;;;10.87;9.30;;;;;;;;;;5028929;28;20218;-83
2023/07/06 02:21:03;;;;;;;10.90;9.80;;;;;;;;;;5037402;28;20192;-82
2023/07/06 02:23:29;;;;;;;11.77;10.10;;;;;;;;;;5037005;28;20191;-82
2023/07/06 02:25:55;;;;;;;14.43;9.90;;;;;;;;;;5037301;28;20242;-82
2023/07/06 02:28:21;;;;;;;10.87;9.73;;;;;;;;;;5052780;28;20349;-82
2023/07/06 02:30:48;;;;;;;13.37;11.13;;;;;;;;;;5036249;28;20244;-82
2023/07/06 02:33:16;;;;;;;11.70;10.60;;;;;;;;;;5034924;28;20269;-82
2023/07/06 02:35:45;;;;;;;12.97;10.23;;;;;;;;;;5036431;28;20266;-82
2023/07/06 02:38:12;;;;;;;12.20;10.27;;;;;;;;;;5035330;28;20250;-82
2023/07/06 02:40:39;;;;;;;14.07;10.73;;;;;;;;;;5013912;28;20184;-82
2023/07/06 02:43:07;;;;;;;16.27;10.70;;;;;;;;;;5016696;28;20193;-82
2023/07/06 02:45:33;;;;;;;17.63;13.17;;;;;;;;;;5017862;28;20220;-82
2023/07/06 02:47:59;;;;;;;22.30;14.27;;;;;;;;;;5019267;28;20198;-82
2023/07/06 02:50:25;;;;;;;20.47;14.50;;;;;;;;;;5036742;28;20180;-79
2023/07/06 02:52:52;;;;;;;21.63;14.50;;;;;;;;;;5035690;28;20254;-79
2023/07/06 02:55:19;;;;;;;18.13;14.23;;;;;;;;;;5036338;28;20192;-79
2023/07/06 02:57:45;;;;;;;20.07;15.03;;;;;;;;;;5036249;28;20192;-79
2023/07/06 03:00:16;;;;;;;20.53;14.33;;;;;;;;;;5021003;28;20199;-80
2023/07/06 03:02:48;;;;;;;22.83;13.97;;;;;;;;;;5036203;28;20219;-79
2023/07/06 03:05:14;;;;;;;21.07;14.33;;;;;;;;;;5036547;28;20230;-79
2023/07/06 03:07:41;;;;;;;15.73;13.73;;;;;;;;;;5017013;28;20211;-86
2023/07/06 03:10:08;;;;;;;18.20;12.60;;;;;;;;;;5036360;28;20274;-86
2023/07/06 03:12:38;;;;;;;18.17;13.10;;;;;;;;;;5009641;28;20189;-86
2023/07/06 03:15:11;;;;;;;19.07;13.60;;;;;;;;;;5002158;28;20204;-86
2023/07/06 03:17:38;;;;;;;18.37;13.30;;;;;;;;;;5037651;28;20180;-86
2023/07/06 03:20:14;;;;;;;17.50;12.27;;;;;;;;;;5021150;28;20183;-86
2023/07/06 03:22:40;;;;;;;17.03;12.10;;;;;;;;;;5021159;28;20271;-86
2023/07/06 03:25:09;;;;;;;17.93;11.80;;;;;;;;;;5020352;28;20268;-82
2023/07/06 03:27:36;;;;;;;18.63;12.83;;;;;;;;;;5035951;28;20218;-82
2023/07/06 03:30:05;;;;;;;14.37;11.63;;;;;;;;;;5020461;28;20195;-82
2023/07/06 03:32:35;;;;;;;19.43;11.63;;;;;;;;;;5036178;28;20183;-82
2023/07/06 03:35:03;;;;;;;18.27;11.57;;;;;;;;;;5016894;28;20200;-82
2023/07/06 03:37:29;;;;;;;15.33;11.73;;;;;;;;;;5045790;28;20202;-83
2023/07/06 03:39:55;;;;;;;15.50;10.90;;;;;;;;;;5036281;28;20180;-83
2023/07/06 03:42:21;;;;;;;18.83;11.40;;;;;;;;;;5036731;28;20271;-85
2023/07/06 03:44:47;;;;;;;14.40;9.90;;;;;;;;;;5020577;28;20218;-86
2023/07/06 03:47:14;;;;;;;14.33;10.30;;;;;;;;;;5006203;28;20181;-87
2023/07/06 03:49:40;;;;;;;15.77;10.57;;;;;;;;;;5001853;28;20226;-87
2023/07/06 03:52:07;;;;;;;16.03;10.37;;;;;;;;;;5008499;28;20176;-87
2023/07/06 03:54:34;;;;;;;13.03;10.07;;;;;;;;;;5023745;28;20191;-87
2023/07/06 03:57:05;;;;;;;16.53;9.57;;;;;;;;;;5038901;28;20184;-86
2023/07/06 03:59:33;;;;;;;16.03;10.27;;;;;;;;;;5053588;28;20190;-86
2023/07/06 04:01:59;;;;;;;15.43;9.60;;;;;;;;;;5041651;28;20196;-86
2023/07/06 04:04:28;;;;;;;15.87;9.30;;;;;;;;;;5043965;28;20231;-86
2023/07/06 04:06:55;;;;;;;12.87;9.17;;;;;;;;;;5016547;28;20247;-85
2023/07/06 04:09:24;;;;;;;17.27;9.33;;;;;;;;;;5044304;28;20263;-87
2023/07/06 04:11:52;;;;;;;13.57;8.77;;;;;;;;;;5027544;28;20184;-86
2023/07/06 04:14:21;;;;;;;16.90;9.40;;;;;;;;;;5027127;28;20180;-86
2023/07/06 04:16:47;;;;;;;14.83;9.00;;;;;;;;;;5030777;28;20194;-86
2023/07/06 04:19:13;;;;;;;16.40;9.00;;;;;;;;;;5059672;28;20188;-86
2023/07/06 04:21:39;;;;;;;14.63;8.90;;;;;;;;;;5041192;28;20180;-85
2023/07/06 04:24:07;;;;;;;12.80;8.30;;;;;;;;;;5025811;28;20191;-86
2023/07/06 04:26:33;;;;;;;15.47;8.80;;;;;;;;;;5025764;28;20279;-85
2023/07/06 04:28:59;;;;;;;15.50;8.77;;;;;;;;;;5023111;28;20185;-85
2023/07/06 04:31:25;;;;;;;15.17;8.67;;;;;;;;;;5034230;28;20184;-79
2023/07/06 04:33:51;;;;;;;15.20;8.87;;;;;;;;;;5039734;28;20198;-78
2023/07/06 04:36:18;;;;;;;15.93;8.60;;;;;;;;;;5039123;28;20176;-79
2023/07/06 04:38:44;;;;;;;21.67;8.43;;;;;;;;;;5018323;28;20177;-79
2023/07/06 04:41:12;;;;;;;17.03;8.87;;;;;;;;;;5019923;28;20238;-79
2023/07/06 04:43:38;;;;;;;10.17;7.80;;;;;;;;;;5037659;28;20173;-79
2023/07/06 04:46:04;;;;;;;12.13;8.30;;;;;;;;;;5021529;28;20212;-79
2023/07/06 04:48:32;;;;;;;13.53;8.43;;;;;;;;;;5057714;28;20180;-82
2023/07/06 04:50:59;;;;;;;14.83;8.40;;;;;;;;;;5037333;28;20176;-82
2023/07/06 04:53:26;;;;;;;17.80;8.80;;;;;;;;;;5039142;28;20206;-82
2023/07/06 04:55:54;;;;;;;14.27;8.37;;;;;;;;;;5038565;28;20188;-83
2023/07/06 04:58:20;;;;;;;15.90;8.17;;;;;;;;;;5052963;28;20245;-82
2023/07/06 05:00:47;;;;;;;16.43;8.77;;;;;;;;;;5020883;28;20349;-82
2023/07/06 05:03:13;;;;;;;18.70;8.97;;;;;;;;;;5038907;28;20192;-82
2023/07/06 05:05:42;;;;;;;13.63;8.37;;;;;;;;;;5040005;28;20236;-86
2023/07/06 05:08:09;;;;;;;15.40;8.40;;;;;;;;;;5033159;28;20180;-86
2023/07/06 05:10:35;;;;;;;15.93;8.77;;;;;;;;;;5035383;28;20172;-85
2023/07/06 05:13:02;;;;;;;17.10;7.90;;;;;;;;;;5036627;28;20183;-86
2023/07/06 05:15:29;;;;;;;13.87;7.87;;;;;;;;;;5010218;28;20212;-86
2023/07/06 05:17:55;;;;;;;13.00;8.27;;;;;;;;;;5053714;28;20274;-86
2023/07/06 05:20:22;;;;;;;14.27;8.10;;;;;;;;;;5039907;28;20191;-79
2023/07/06 05:22:48;;;;;;;18.00;8.47;;;;;;;;;;5035601;28;20181;-79
2023/07/06 05:25:18;;;;;;;20.03;8.93;;;;;;;;;;5036055;28;20204;-79
2023/07/06 05:27:45;;;;;;;19.37;8.63;;;;;;;;;;5052982;28;20176;-79
2023/07/06 05:30:11;;;;;;;17.43;8.87;;;;;;;;;;5038985;28;20172;-79
2023/07/06 05:32:37;;;;;;;15.93;8.87;;;;;;;;;;5038882;28;20176;-79
2023/07/06 05:35:04;;;;;;;14.07;8.67;;;;;;;;;;5038794;28;20191;-80
2023/07/06 05:37:30;;;;;;;17.53;9.10;;;;;;;;;;5038374;28;20223;-79
2023/07/06 05:39:56;;;;;;;19.03;9.37;;;;;;;;;;5038826;28;20184;-79
2023/07/06 05:42:23;;;;;;;16.63;9.60;;;;;;;;;;5023135;28;20199;-79
2023/07/06 05:44:50;;;;;;;21.40;9.37;;;;;;;;;;5022161;28;20265;-79
2023/07/06 05:47:16;;;;;;;17.90;8.80;;;;;;;;;;5022623;28;20192;-79
2023/07/06 05:49:42;;;;;;;19.53;9.40;;;;;;;;;;5038409;28;20188;-79
2023/07/06 05:52:08;;;;;;;17.97;9.40;;;;;;;;;;5022505;28;20184;-79
2023/07/06 05:54:34;;;;;;;18.97;9.83;;;;;;;;;;5014705;28;20279;-79
2023/07/06 05:57:02;;;;;;;21.27;10.20;;;;;;;;;;5017435;28;20217;-79
2023/07/06 05:59:29;;;;;;;20.23;9.70;;;;;;;;;;5045033;28;20188;-80
2023/07/06 06:01:55;;;;;;;24.60;10.97;;;;;;;;;;5015266;28;20199;-80
2023/07/06 06:04:21;;;;;;;21.97;11.13;;;;;;;;;;5032743;28;20215;-81
2023/07/06 06:06:54;;;;;;;24.97;11.80;;;;;;;;;;5031449;28;20255;-80
2023/07/06 06:09:20;;;;;;;28.40;13.60;;;;;;;;;;5029901;28;20299;-80
2023/07/06 06:11:48;;;;;;;25.20;13.47;;;;;;;;;;5031335;28;20232;-79
2023/07/06 06:14:20;;;;;;;25.67;14.60;;;;;;;;;;5014841;28;20298;-80
2023/07/06 06:16:47;;;;;;;28.50;15.57;;;;;;;;;;5030263;28;20188;-81
2023/07/06 06:19:13;;;;;;;26.97;14.83;;;;;;;;;;5032238;28;20382;-81
2023/07/06 06:21:39;;;;;;;25.63;16.00;;;;;;;;;;5030774;28;20195;-80
2023/07/06 06:24:08;;;;;;;31.93;16.27;;;;;;;;;;5029712;28;20219;-80
2023/07/06 06:26:34;;;;;;;35.43;17.50;;;;;;;;;;5029628;28;20172;-81
2023/07/06 06:29:01;;;;;;;34.97;17.23;;;;;;;;;;5030432;28;20180;-80
2023/07/06 06:31:27;;;;;;;31.43;18.37;;;;;;;;;;5031570;28;20192;-80
2023/07/06 06:33:53;;;;;;;27.87;16.87;;;;;;;;;;5030147;28;20261;-80
2023/07/06 06:36:20;;;;;;;29.97;16.73;;;;;;;;;;5030308;28;20184;-80
2023/07/06 06:38:46;;;;;;;28.90;16.20;;;;;;;;;;5029387;28;20275;-81
2023/07/06 06:41:12;;;;;;;27.90;16.43;;;;;;;;;;5014167;28;20312;-81
2023/07/06 06:43:39;;;;;;;35.13;16.67;;;;;;;;;;5027694;28;20226;-83
2023/07/06 06:46:05;;;;;;;33.80;17.73;;;;;;;;;;5028691;28;20216;-83
2023/07/06 06:48:32;;;;;;;29.97;16.57;;;;;;;;;;5017781;28;20191;-83
2023/07/06 06:50:59;;;;;;;30.47;17.50;;;;;;;;;;5020980;28;20214;-83
2023/07/06 06:53:26;;;;;;;28.27;17.03;;;;;;;;;;5023126;28;20184;-83
2023/07/06 06:55:52;;;;;;;26.03;16.67;;;;;;;;;;5054048;28;20271;-83
2023/07/06 06:58:20;;;;;;;29.23;17.30;;;;;;;;;;5017630;28;20211;-83
2023/07/06 07:00:47;;;;;;;32.57;16.67;;;;;;;;;;5037709;28;20211;-83
2023/07/06 07:03:13;;;;;;;27.43;17.83;;;;;;;;;;5030489;28;20204;-83
2023/07/06 07:05:40;;;;;;;27.13;17.90;;;;;;;;;;5004973;28;20240;-83
2023/07/06 07:08:06;;;;;;;27.90;18.67;;;;;;;;;;5025983;28;20181;-84
2023/07/06 07:10:33;;;;;;;31.03;18.50;;;;;;;;;;5020842;28;20184;-82
2023/07/06 07:12:59;;;;;;;25.93;18.80;;;;;;;;;;5025709;28;20189;-83
2023/07/06 07:15:25;;;;;;;28.20;18.80;;;;;;;;;;5049456;28;20180;-83
2023/07/06 07:17:55;;;;;;;30.07;18.60;;;;;;;;;;5036509;28;20249;-84
2023/07/06 07:20:21;;;;;;;25.20;19.63;;;;;;;;;;5036123;28;20184;-84
2023/07/06 07:22:47;;;;;;;26.73;18.93;;;;;;;;;;5035692;28;20234;-85
2023/07/06 07:25:17;;;;;;;26.60;19.03;;;;;;;;;;5053961;28;20203;-85
2023/07/06 07:27:43;;;;;;;26.77;20.10;;;;;;;;;;5036039;28;20188;-84
2023/07/06 07:30:11;;;;;;;28.63;19.00;;;;;;;;;;5036691;28;20214;-84
2023/07/06 07:32:37;;;;;;;28.83;19.83;;;;;;;;;;5054075;28;20214;-84
2023/07/06 07:35:03;;;;;;;29.13;19.30;;;;;;;;;;5054176;28;20206;-81
2023/07/06 07:37:30;;;;;;;25.80;18.43;;;;;;;;;;5036267;28;20180;-82
2023/07/06 07:39:57;;;;;;;25.27;17.77;;;;;;;;;;5016367;28;20185;-82
2023/07/06 07:42:25;;;;;;;24.10;17.97;;;;;;;;;;5023146;28;20207;-81
2023/07/06 07:44:51;;;;;;;24.43;17.87;;;;;;;;;;5035537;28;20207;-81
2023/07/06 07:47:18;;;;;;;26.50;18.20;;;;;;;;;;5020664;28;20194;-81
2023/07/06 07:49:47;;;;;;;25.13;17.67;;;;;;;;;;5016716;28;20177;-81
2023/07/06 07:52:14;;;;;;;26.13;18.07;;;;;;;;;;5050206;28;20189;-89
2023/07/06 07:54:42;;;;;;;25.53;17.73;;;;;;;;;;5036998;28;20267;-88
2023/07/06 07:57:08;;;;;;;21.03;16.17;;;;;;;;;;5020538;28;20211;-87
2023/07/06 07:59:35;;;;;;;21.07;16.37;;;;;;;;;;5037628;28;20180;-88
2023/07/06 08:02:02;;;;;;;23.90;15.77;;;;;;;;;;5037243;28;20192;-89
2023/07/06 08:04:28;;;;;;;26.00;17.03;;;;;;;;;;5021325;28;20219;-88
2023/07/06 08:06:54;;;;;;;21.50;15.93;;;;;;;;;;5078863;23;20238;-84
2023/07/06 08:09:21;;;;;;;23.90;17.13;;;;;;;;;;5027699;28;20184;-83
2023/07/06 08:11:47;;;;;;;23.83;17.07;;;;;;;;;;5072647;28;20186;-84
2023/07/06 08:14:13;;;;;;;21.10;17.03;;;;;;;;;;5027504;28;20189;-83
2023/07/06 08:16:42;;;;;;;21.00;15.83;;;;;;;;;;5006448;28;20180;-83
2023/07/06 08:19:12;;;;;;;22.37;15.13;;;;;;;;;;5031972;28;20172;-84
2023/07/06 08:21:40;;;;;;;20.50;15.57;;;;;;;;;;5020803;28;20193;-85
2023/07/06 08:24:06;;;;;;;22.13;15.83;;;;;;;;;;5025119;28;20180;-84
2023/07/06 08:26:33;;;;;;;22.17;16.43;;;;;;;;;;5015833;28;20252;-84
2023/07/06 08:28:59;;;;;;;22.13;16.07;;;;;;;;;;5029533;28;20184;-83
2023/07/06 08:31:26;;;;;;;21.43;15.73;;;;;;;;;;5036002;28;20184;-83
2023/07/06 08:33:52;;;;;;;23.07;14.70;;;;;;;;;;5016526;28;20199;-83
2023/07/06 08:36:21;;;;;;;20.43;14.67;;;;;;;;;;5033992;28;20188;-83
2023/07/06 08:38:48;;;;;;;19.87;15.17;;;;;;;;;;5053876;28;20180;-83
2023/07/06 08:41:17;;;;;;;23.27;15.37;;;;;;;;;;5033708;28;20239;-84
2023/07/06 08:43:43;;;;;;;22.60;15.57;;;;;;;;;;5045392;28;20184;-84
2023/07/06 08:46:11;;;;;;;19.40;15.47;;;;;;;;;;5052732;28;20294;-84
2023/07/06 08:48:37;;;;;;;21.53;15.23;;;;;;;;;;5073694;28;20175;-84
2023/07/06 08:51:23;;;;;;;17.07;14.50;;;;;;;;;;5036628;28;20208;-84
2023/07/06 08:54:02;;;;;;;20.77;14.40;;;;;;;;;;5021235;28;20184;-84
2023/07/06 08:56:34;;;;;;;17.73;13.30;;;;;;;;;;5019319;28;20192;-84
2023/07/06 08:59:07;;;;;;;15.13;12.80;;;;;;;;;;5035297;28;20201;-87
2023/07/06 09:01:34;;;;;;;19.07;13.27;;;;;;;;;;5036397;28;20188;-88
2023/07/06 09:04:01;;;;;;;16.40;13.60;;;;;;;;;;5034661;28;20192;-87
2023/07/06 09:06:28;;;;;;;16.67;13.70;;;;;;;;;;5038567;28;20235;-87
2023/07/06 09:08:55;;;;;;;19.43;14.30;;;;;;;;;;5036158;28;20261;-88
2023/07/06 09:11:25;;;;;;;17.07;13.50;;;;;;;;;;5037508;28;20184;-88
2023/07/06 09:13:55;;;;;;;22.47;13.67;;;;;;;;;;5035484;28;20193;-87
2023/07/06 09:16:23;;;;;;;20.00;12.77;;;;;;;;;;5037721;28;20188;-89
2023/07/06 09:18:50;;;;;;;18.17;12.73;;;;;;;;;;5019925;28;20181;-88
2023/07/06 09:21:20;;;;;;;19.73;12.27;;;;;;;;;;5037573;28;20199;-88
2023/07/06 09:23:47;;;;;;;17.80;11.73;;;;;;;;;;5036225;28;20188;-88
2023/07/06 09:26:42;;;;;;;15.20;12.07;;;;;;;;;;5035926;28;20209;-88
2023/07/06 09:29:11;;;;;;;20.43;12.07;;;;;;;;;;5015196;28;20185;-89
2023/07/06 09:31:37;;;;;;;15.93;10.93;;;;;;;;;;5035576;28;20264;-82
2023/07/06 09:34:10;;;;;;;16.17;11.13;;;;;;;;;;5035722;28;20177;-82
2023/07/06 09:36:36;;;;;;;15.97;11.37;;;;;;;;;;5029476;28;20193;-83
2023/07/06 09:39:09;;;;;;;16.53;11.07;;;;;;;;;;5019029;28;20227;-82
2023/07/06 09:41:43;;;;;;;13.03;9.70;;;;;;;;;;5018623;28;20187;-82
2023/07/06 09:44:12;;;;;;;14.13;9.53;;;;;;;;;;5036248;28;20176;-82
2023/07/06 09:46:39;;;;;;;16.07;10.30;;;;;;;;;;5034992;28;20183;-88
2023/07/06 09:49:17;;;;;;;14.40;10.63;;;;;;;;;;5041927;28;20191;-87
2023/07/06 09:51:50;;;;;;;14.80;11.07;;;;;;;;;;5018633;28;20221;-88
2023/07/06 09:54:23;;;;;;;14.63;10.00;;;;;;;;;;5023528;28;20248;-88
2023/07/06 09:56:49;;;;;;;14.30;10.90;;;;;;;;;;5035855;28;20188;-90
2023/07/06 09:59:16;;;;;;;17.87;11.30;;;;;;;;;;5019772;28;20177;-90
2023/07/06 10:01:53;;;;;;;13.67;10.03;;;;;;;;;;5034509;28;20184;-87
2023/07/06 10:04:39;;;;;;;16.33;11.17;;;;;;;;;;5036915;28;20179;-85
2023/07/06 10:07:25;;;;;;;17.00;12.13;;;;;;;;;;5034717;28;20224;-85
2023/07/06 10:10:08;;;;;;;15.63;11.20;;;;;;;;;;5018996;28;20191;-85
2023/07/06 10:12:44;;;;;;;14.43;9.63;;;;;;;;;;5032112;28;20181;-84
2023/07/06 10:15:33;;;;;;;14.93;10.03;;;;;;;;;;5036560;28;20188;-85
2023/07/06 10:18:05;;;;;;;14.73;10.40;;;;;;;;;;4990298;28;20212;-85
2023/07/06 10:20:37;;;;;;;16.40;10.47;;;;;;;;;;5038574;28;20206;-88
2023/07/06 10:23:09;;;;;;;13.33;10.00;;;;;;;;;;5039306;28;20181;-88
2023/07/06 10:25:35;;;;;;;15.90;10.40;;;;;;;;;;5040361;28;20215;-89
2023/07/06 10:28:18;;;;;;;13.97;9.47;;;;;;;;;;5038199;28;20171;-89
2023/07/06 10:30:46;;;;;;;13.57;9.73;;;;;;;;;;5037698;28;20187;-87
2023/07/06 10:33:19;;;;;;;14.53;9.80;;;;;;;;;;5038081;28;20172;-90
2023/07/06 10:35:46;;;;;;;14.73;9.80;;;;;;;;;;5034875;28;20185;-89
2023/07/06 10:38:13;;;;;;;15.47;9.50;;;;;;;;;;5015851;28;20200;-89
2023/07/06 10:40:39;;;;;;;15.77;10.47;;;;;;;;;;5022634;28;20189;-89
2023/07/06 10:43:14;;;;;;;15.00;10.53;;;;;;;;;;5015985;28;20184;-89
2023/07/06 10:45:42;;;;;;;14.85;10.32;;;;;;;;;;5020531;28;20274;-89
2023/07/06 10:48:28;;;;;;;11.30;10.10;;;;;;;;;;5033276;28;20184;-89
2023/07/06 10:50:57;;;;;;;15.60;10.60;;;;;;;;;;5034128;28;20179;-90
2023/07/06 10:53:33;;;;;;;17.60;10.20;;;;;;;;;;5029215;28;20192;-88
2023/07/06 10:56:02;;;;;;;13.52;9.20;;;;;;;;;;5030135;28;20184;-90
2023/07/06 10:58:29;;;;;;;13.00;8.90;;;;;;;;;;5036569;28;20199;-89
2023/07/06 11:01:00;;;;;;;9.50;7.68;;;;;;;;;;5020505;28;20180;-89
2023/07/06 11:03:27;;;;;;;11.65;6.68;;;;;;;;;;5025703;28;20196;-89
2023/07/06 11:06:07;;;;;;;10.07;6.90;;;;;;;;;;5023031;28;20447;-90
2023/07/06 11:08:53;;;;;;;10.77;6.57;;;;;;;;;;5010746;28;20188;-89
2023/07/06 11:11:20;;;;;;;9.53;6.13;;;;;;;;;;5030718;28;20206;-85
2023/07/06 11:13:51;;;;;;;10.38;6.53;;;;;;;;;;5033196;28;20180;-85
2023/07/06 11:16:37;;;;;;;8.40;5.80;;;;;;;;;;5024523;28;20180;-84
2023/07/06 11:19:04;;;;;;;9.75;5.93;;;;;;;;;;5022586;28;20188;-85
2023/07/06 11:21:43;;;;;;;8.15;5.72;;;;;;;;;;5026701;28;20184;-84
2023/07/06 11:24:12;;;;;;;10.07;6.05;;;;;;;;;;5020039;28;20192;-84
2023/07/06 11:26:44;;;;;;;8.98;6.35;;;;;;;;;;5024515;28;20279;-84
2023/07/06 11:29:10;;;;;;;8.57;6.05;;;;;;;;;;5019349;28;20177;-83
2023/07/06 11:31:58;;;;;;;9.45;5.75;;;;;;;;;;5011915;28;20180;-83
2023/07/06 11:34:31;;;;;;;8.65;4.95;;;;;;;;;;5021278;28;20185;-82
2023/07/06 11:37:08;;;;;;;10.75;4.90;;;;;;;;;;5027391;28;20326;-83
2023/07/06 11:39:46;;;;;;;8.60;5.28;;;;;;;;;;5054526;28;20203;-83
2023/07/06 11:42:32;;;;;;;7.95;5.38;;;;;;;;;;5033739;28;20169;-83
2023/07/06 11:45:03;;;;;;;9.77;6.00;;;;;;;;;;5054195;28;20296;-91
2023/07/06 11:47:37;;;;;;;8.70;5.32;;;;;;;;;;5054627;28;20170;-90
2023/07/06 11:50:09;;;;;;;9.20;5.43;;;;;;;;;;5033558;28;20183;-89
2023/07/06 11:52:37;;;;;;;7.47;5.30;;;;;;;;;;5036483;28;20183;-88
2023/07/06 11:55:31;;;;;;;7.32;5.03;;;;;;;;;;5036225;28;20178;-88
2023/07/06 11:58:07;;;;;;;8.32;5.35;;;;;;;;;;5038478;28;20180;-88
2023/07/06 12:00:48;;;;;;;11.35;5.32;;;;;;;;;;5023803;28;20271;-85
2023/07/06 12:03:15;;;;;;;9.27;5.05;;;;;;;;;;5016152;28;20184;-85
2023/07/06 12:05:44;;;;;;;9.68;5.40;;;;;;;;;;5016605;28;20224;-85
2023/07/06 12:08:14;;;;;;;10.98;6.00;;;;;;;;;;5033383;28;20260;-85
2023/07/06 12:10:41;;;;;;;7.32;4.50;;;;;;;;;;5039676;28;20175;-84
2023/07/06 12:13:28;;;;;;;6.68;5.10;;;;;;;;;;5035663;28;20172;-84
2023/07/06 12:16:05;;;;;;;8.25;4.25;;;;;;;;;;5034741;28;20233;-84
2023/07/06 12:18:33;;;;;;;8.57;5.07;;;;;;;;;;5023963;28;20225;-85
2023/07/06 12:21:00;;;;;;;7.40;4.65;;;;;;;;;;5035817;28;20239;-86
2023/07/06 12:23:26;;;;;;;9.57;5.45;;;;;;;;;;5015957;28;20194;-84
2023/07/06 12:25:54;;;;;;;8.35;5.20;;;;;;;;;;5026149;28;20235;-84
2023/07/06 12:28:20;;;;;;;7.53;5.13;;;;;;;;;;5043268;28;20204;-84
2023/07/06 12:30:52;;;;;;;6.10;4.88;;;;;;;;;;5050669;28;20180;-85
2023/07/06 12:33:19;;;;;;;10.00;4.70;;;;;;;;;;5025280;28;20184;-84
2023/07/06 12:35:46;;;;;;;7.28;4.55;;;;;;;;;;5022284;28;20242;-84
2023/07/06 12:38:14;;;;;;;7.70;4.78;;;;;;;;;;5023276;28;20261;-84
2023/07/06 12:40:40;;;;;;;8.25;5.00;;;;;;;;;;5026307;28;20181;-85
2023/07/06 12:43:14;;;;;;;8.00;5.00;;;;;;;;;;5014519;28;20181;-84
2023/07/06 12:45:40;;;;;;;9.20;5.18;;;;;;;;;;5028383;28;20262;-84
2023/07/06 12:48:07;;;;;;;12.00;5.35;;;;;;;;;;5018887;28;20176;-83
2023/07/06 12:50:39;;;;;;;8.43;5.07;;;;;;;;;;5014046;28;20176;-86
2023/07/06 12:53:22;;;;;;;9.02;4.95;;;;;;;;;;5020357;28;20189;-88
2023/07/06 12:55:49;;;;;;;8.10;5.00;;;;;;;;;;5030908;28;20185;-87
2023/07/06 12:58:26;;;;;;;9.15;4.95;;;;;;;;;;5018990;28;20196;-87
2023/07/06 13:00:53;;;;;;;8.90;4.95;;;;;;;;;;5028728;28;20199;-87
2023/07/06 13:03:21;;;;;;;8.38;5.30;;;;;;;;;;5027484;28;20276;-88
2023/07/06 13:05:54;;;;;;;7.80;5.72;;;;;;;;;;5017600;28;20281;-87
2023/07/06 13:08:21;;;;;;;8.80;4.95;;;;;;;;;;5021976;28;20204;-87
2023/07/06 13:10:55;;;;;;;11.15;4.93;;;;;;;;;;5025975;28;20184;-85
2023/07/06 13:13:21;;;;;;;8.88;4.97;;;;;;;;;;5048767;28;20184;-86
2023/07/06 13:15:47;;;;;;;10.27;5.78;;;;;;;;;;5019305;28;20242;-86
2023/07/06 13:18:15;;;;;;;11.70;5.97;;;;;;;;;;5036509;28;20195;-85
2023/07/06 13:20:41;;;;;;;9.15;4.93;;;;;;;;;;5035955;28;20220;-85
2023/07/06 13:23:11;;;;;;;7.38;4.82;;;;;;;;;;5051282;28;20237;-86
2023/07/06 13:25:44;;;;;;;9.40;5.10;;;;;;;;;;5025122;28;20214;-86
2023/07/06 13:28:11;;;;;;;7.22;4.65;;;;;;;;;;5031232;28;20185;-85
2023/07/06 13:30:40;;;;;;;11.05;5.22;;;;;;;;;;5032956;28;20170;-87
2023/07/06 13:33:07;;;;;;;9.57;4.88;;;;;;;;;;5051916;28;20175;-85
2023/07/06 13:35:33;;;;;;;11.70;4.95;;;;;;;;;;5040195;28;20541;-86
2023/07/06 13:38:03;;;;;;;11.68;4.82;;;;;;;;;;5015627;28;20300;-87
2023/07/06 13:40:30;;;;;;;7.32;4.05;;;;;;;;;;5010302;28;20193;-83
2023/07/06 13:42:59;;;;;;;9.27;4.47;;;;;;;;;;5035658;28;20180;-84
2023/07/06 13:45:29;;;;;;;6.10;4.05;;;;;;;;;;5031699;28;20215;-83
2023/07/06 13:47:56;;;;;;;9.05;3.97;;;;;;;;;;5044363;28;20184;-84
2023/07/06 13:50:25;;;;;;;8.57;3.60;;;;;;;;;;5020179;28;20187;-84
2023/07/06 13:52:55;;;;;;;8.68;3.70;;;;;;;;;;5022562;28;20243;-83
2023/07/06 13:55:24;;;;;;;6.25;3.15;;;;;;;;;;5024888;28;20269;-83
2023/07/06 13:57:53;;;;;;;7.18;3.40;;;;;;;;;;5032711;28;20189;-80
2023/07/06 14:00:19;;;;;;;8.52;3.90;;;;;;;;;;5033318;28;20187;-81
2023/07/06 14:02:49;;;;;;;7.45;3.90;;;;;;;;;;5034673;28;20334;-81
2023/07/06 14:05:19;;;;;;;7.22;3.85;;;;;;;;;;5050164;23;20201;-84
2023/07/06 14:07:45;;;;;;;6.07;3.40;;;;;;;;;;5029123;28;20191;-85
2023/07/06 14:10:12;;;;;;;7.28;3.53;;;;;;;;;;5034612;28;20227;-85
2023/07/06 14:12:38;;;;;;;6.25;4.00;;;;;;;;;;5030754;28;20219;-84
2023/07/06 14:15:04;;;;;;;7.13;3.25;;;;;;;;;;5033124;28;20184;-87
2023/07/06 14:17:32;;;;;;;6.55;3.70;;;;;;;;;;5016130;28;20188;-88
2023/07/06 14:19:59;;;;;;;7.68;3.72;;;;;;;;;;5017274;28;20192;-87
2023/07/06 14:22:25;;;;;;;7.03;3.00;;;;;;;;;;5019834;28;20203;-87
2023/07/06 14:24:51;;;;;;;6.10;3.25;;;;;;;;;;5021795;28;20219;-87
2023/07/06 14:27:19;;;;;;;8.80;2.90;;;;;;;;;;5022256;28;20264;-88
2023/07/06 14:29:45;;;;;;;5.70;3.10;;;;;;;;;;5035752;28;20179;-87
2023/07/06 14:32:15;;;;;;;7.97;3.08;;;;;;;;;;5053235;28;20404;-84
2023/07/06 14:34:45;;;;;;;8.45;3.38;;;;;;;;;;5038141;28;20271;-84
2023/07/06 14:37:11;;;;;;;8.70;3.20;;;;;;;;;;5037800;28;20195;-84
2023/07/06 14:39:37;;;;;;;6.05;2.80;;;;;;;;;;5054593;28;20267;-84
2023/07/06 14:42:13;;;;;;;7.03;2.92;;;;;;;;;;5054121;28;20286;-85